Airfield :
LOGIN :

Register | Disclaimer

   EN    FR    IT 

 










Legend :    VFR   Marginal VFR   IFR   Intensive IFR   Very Intensive IFR
Visi :
Ceiling :
>= 8 km
>= 3000ft
5 to 8 km
1000 to 3000 ft
1500m to 5 km
500 to 1000 ft
800 to 1500m
200 to 500 ft
< 800m
< 200 ft
Symbols :   Thunderstorms  Fog  Heavy snow  Heavy precipitations  Wind > 20 kt
SIGMETs :     Misc.  Thunderstorms  Icing  Turbulence  Mountain Waves  Volcanic Ashes







- Airport Elevation : 1516 ft
- IATA code : AGB


EDMA - Augsburg

CURRENT METAR :
  • 211020Z 27011KT 9999 SCT014 BKN041 01/M01 Q1013

EXPIRED METARs :
  • 210950Z 28014KT 9999 BKN012 BKN020 01/M01 Q1012
  • 210920Z 28013KT 9999 FEW014 BKN016 BKN032 01/M01 Q1011
  • 210850Z 28016KT 9999 SCT015 BKN023 BKN028 01/M01 Q1010
  • 210820Z 29014KT 9999 BKN013 BKN024 01/M01 Q1010
  • 210750Z 28012KT 9999 BKN011 OVC018 01/M01 Q1009
  • 210720Z 28013KT 9999 OVC010 01/M00 Q1008

TAF TAF EDMA
Valid from the 21 at 09:00 until the 21 at 18:00 UTC


210800Z 2109/2118 28012KT 9999 BKN015
TEMPO 2109/2114 30015G25KT 2000 SHSN OVC006TCU
BECMG 2116/2118 24005KT
No reported NOTAMs for that airfield.
1 SIGMET reported for the München FIR (EDMM) :
 
Severe icing
EDMM SIGMET 2 VALID 210935/211100 EDZM
EDMM MUNCHEN FIR SEV ICE FCST WI N4919 E01050 - N4849 E01051 - N4811 E00937 - N4847 E00947 - N4919 E01050 4000FT/FL070 MOV SE WKN=



MET'MAP, your aeronautical weather chart ! - Copyright ORBIFLY December 2007 - Disclaimer

ORBIFLY MET'MAP TEAM :

Programming & Development : Alexandra Zaïnal
Concept & Development : Baudouin d'Aumeries
Co-Development & Prog : Marc-Olivier Méhu
Technical & hardware support : Manuel Goepfert

Contact : metmap@orbifly.com




SOURCES & CREDITS :

   NOAA